AirNav   Pilot Hours Calculator
 
 371 users online  

63M Hermann Municipal Airport
Hermann, Missouri, USA

GOING TO HERMANN?


FAA INFORMATION EFFECTIVE 28 MARCH 2019

Location

FAA Identifier: 63M
Lat/Long: 38-42-18.6050N / 091-29-25.9950W
38-42.310083N / 091-29.433250W
38.7051681 / -91.4905542
(estimated)
Elevation: 507.5 ft. / 154.7 m (surveyed)
Variation: 03E (1985)
From city: 3 miles NW of HERMANN, MO
Time zone: UTC -5 (UTC -6 during Standard Time)
Zip code: 65041

Airport Operations

Airport use: Open to the public
Activation date: 10/1998
Control tower: no
ARTCC: KANSAS CITY CENTER
FSS: SAINT LOUIS FLIGHT SERVICE STATION
NOTAMs facility: STL (NOTAM-D service available)
Attendance: UNATNDD
Wind indicator: lighted
Segmented circle: yes
Lights: ACTIVATE MIRL RY 07/25, PAPI RY 25 - CTAF.
Beacon: white-green (lighted land airport)
Operates sunset to sunrise.

Airport Communications

CTAF: 122.9

Nearby radio navigation aids

VOR radial/distance  VOR name  Freq  Var
FTZr267/24.3FORISTELL VORTAC110.8005E
VIHr011/34.6VICHY VOR/DME117.7006E
COUr101/34.6COLUMBIA VOR/DME110.2000E
HLVr123/38.6HALLSVILLE VORTAC114.2006E

Airport Services

Parking: hangars and tiedowns
Powerplant service: NONE
Bottled oxygen: NONE
Bulk oxygen: NONE

Runway Information

Runway 7/25

Dimensions: 3198 x 50 ft. / 975 x 15 m
Surface: asphalt, in excellent condition
Runway edge lights: medium intensity
RUNWAY 7  RUNWAY 25
Latitude: 38-42.208833N38-42.411333N
Longitude: 091-29.743500W091-29.123000W
Elevation: 506.5 ft.507.5 ft.
Traffic pattern: leftright
Markings: nonprecision, in good conditionnonprecision, in good condition
Visual slope indicator: 2-light PAPI on left (3.00 degrees glide path)
Touchdown point: yes, no lightsyes, no lights

Airport Ownership and Management from official FAA records

Ownership: Publicly-owned
Owner: CITY OF HERMANN
1902 JEFFERSON STREET
HERMANN, MO 65041
Phone 573-486-5400
Manager: GARY GEISLER
228 E. 1ST STREET
HERMANN, MO 65041
Phone 573-486-3370

Airport Operational Statistics

Aircraft based on the field: 6
Single engine airplanes: 6
    
Aircraft operations: avg 26/week *
59% local general aviation
41% transient general aviation
* for 12-month period ending 31 December 2017

Additional Remarks

BIRDS ON AND IN VICINITY OF ARPT.
BE ALERT TO LARGE AGRICULTURAL IRRIGATION SYSTEM DURING SPRING AND SUMMER MONTHS, APRX 300-400 FT FM RY 25 END.
PWR TRANSMISSION LINES AND CATENARY SUPPORT STRUCTURE 2600 FT FM RWY 25 THLD ON EXTENDED RWY CNTRLN.
USE CTN OPRG ON TWY AND APN - PAVEMENT SEVERELY DTRTD - FOD HAZ.

Instrument Procedures

There are no published instrument procedures at 63M.

Some nearby airports with instrument procedures:

KFYG - Washington Regional Airport (24 nm E)
KFTT - Elton Hensley Memorial Airport (25 nm W)
KMYJ - Mexico Memorial Airport (31 nm NW)
KJEF - Jefferson City Memorial Airport (32 nm W)
KUUV - Sullivan Regional Airport (32 nm SE)
 
Loc | Ops | Rwys | IFR | FBO | Links
Com | Nav | Svcs | Stats | Notes

Kansas City Aviation Department
 
Area around 63M (Hermann Municipal Airport)
 
Road maps at: MapQuest Bing Google
 
Aerial photo
WARNING: Photo may not be current or correct
Aerial photo of 63M (Hermann Municipal Airport)
Photo by PCP

Do you have a better or more recent aerial photo of Hermann Municipal Airport that you would like to share? If so, please send us your photo.

 
Sectional chart

 
Airport distance calculator
Flying to Hermann Municipal Airport? Find the distance to fly.

From to 63M

Sunrise and sunset
Times for 24-Apr-2019
 Local
(UTC-5)
 Zulu
(UTC)
Morning civil twilight05:5010:50
Sunrise06:1811:18
Sunset19:5000:50
Evening civil twilight20:1801:18

Current date and time
Zulu (UTC)  24-Apr-2019 06:07:52
Local (UTC-5)  24-Apr-2019 01:07:52
 
METAR
KFYG 
24nm E 
240555Z AUTO 00000KT 6SM BR BKN075 OVC080 14/14 A2998 RMK AO2
KMYJ 
31nm NW 
240535Z AUTO 06005KT 7SM SCT080 BKN085 11/10 A2998 RMK AO2
KJEF 
32nm W 
240553Z AUTO 00000KT 4SM -RA BR FEW006 SCT060 OVC075 14/12 A2998 RMK AO2 RAB05 SLP141 P0003 60003 T01390122 10144 20133 401830122 55008
KCOU 
35nm W 
240554Z AUTO 12004KT 4SM -RA BR OVC060 13/12 A2997 RMK AO2 RAB30 SLP147 P0002 60002 T01280117 10144 20128 401670111 56012
KVIH 
37nm S 
240557Z AUTO 07007KT 2 1/2SM +RA BR FEW003 BKN036 OVC044 13/12 A2997 RMK AO2 P0001 T01330122
KSUS 
40nm E 
240554Z AUTO 09003KT 10SM OVC110 14/13 A2997 RMK AO2 SLP148 60000 T01440133 10161 20144 402170144 56011
TAF
KCOU 
35nm W 
240520Z 2406/2506 08006KT 6SM BR VCSH SCT020 BKN040 TEMPO 2406/2408 5SM -SHRA BKN020 FM240900 07006KT 5SM BR VCSH OVC007 FM241700 32006KT P6SM OVC015 FM250100 VRB04KT P6SM BKN020
KSUS 
40nm E 
240520Z 2406/2506 08005KT P6SM -SHRA SCT020 OVC040 TEMPO 2407/2409 4SM -SHRA BR BKN020 FM240900 09006KT 5SM BR VCSH OVC015 FM241200 11007KT 5SM BR VCSH OVC008 FM241700 06007KT P6SM OVC015 FM250100 VRB03KT P6SM OVC020
NOTAMs
Click for the latest NOTAMs
NOTAMs are issued by the DoD/FAA and will open in a separate window not controlled by AirNav.

 

 
 

Would you like to see your business listed on this page?

 If your business provides an interesting product or service to pilots, flight crews, aircraft, or users of the Hermann Municipal Airport, you should consider listing it here.  To start the listing process, click on the button below
 
Add a business
 

Other Pages about Hermann Municipal Airport

Update a link
 
Copyright © AirNav, LLC. All rights reserved. Privacy Policy  Contact